createdAt,value
2018-06-21T00:00:07.400Z,26.01
2018-06-21T00:00:47.879Z,25.98
2018-06-21T00:01:28.377Z,25.92
2018-06-21T00:02:08.936Z,25.9
2018-06-21T00:02:49.357Z,25.97
2018-06-21T00:03:29.810Z,25.92
2018-06-21T00:04:10.335Z,25.97
2018-06-21T00:04:50.790Z,25.99
2018-06-21T00:05:31.339Z,25.97
2018-06-21T00:06:11.840Z,25.88
2018-06-21T00:06:52.324Z,25.9
2018-06-21T00:07:32.788Z,25.92
2018-06-21T00:08:13.276Z,25.94
2018-06-21T00:08:53.808Z,26.01
2018-06-21T00:09:34.313Z,25.88
2018-06-21T00:10:14.796Z,25.8
2018-06-21T00:10:55.264Z,25.75
2018-06-21T00:11:35.768Z,25.82
2018-06-21T00:12:16.268Z,25.75
2018-06-21T00:12:56.811Z,25.73
2018-06-21T00:13:37.281Z,25.76
2018-06-21T00:14:17.780Z,25.79
2018-06-21T00:14:58.263Z,25.9
2018-06-21T00:15:38.743Z,25.75
2018-06-21T00:16:19.255Z,25.87
2018-06-21T00:16:59.798Z,25.9
2018-06-21T00:17:40.292Z,25.8
2018-06-21T00:18:20.770Z,25.8
2018-06-21T00:19:01.268Z,25.8
2018-06-21T00:19:41.731Z,25.9
2018-06-21T00:20:22.258Z,25.77
2018-06-21T00:21:02.907Z,25.9
2018-06-21T00:21:43.360Z,25.87
2018-06-21T00:22:23.853Z,25.92
2018-06-21T00:23:04.330Z,25.91
2018-06-21T00:23:44.835Z,25.91
2018-06-21T00:24:25.349Z,25.88
2018-06-21T00:25:05.785Z,25.79
2018-06-21T00:25:46.293Z,25.94
2018-06-21T00:26:26.808Z,25.92
2018-06-21T00:27:07.275Z,25.91
2018-06-21T00:27:47.755Z,25.92
2018-06-21T00:28:28.282Z,25.79
2018-06-21T00:29:08.772Z,25.8
2018-06-21T00:29:49.275Z,25.79
2018-06-21T00:30:29.795Z,25.9
2018-06-21T00:31:10.221Z,25.88
2018-06-21T00:31:50.794Z,25.77
2018-06-21T00:32:31.240Z,25.75
2018-06-21T00:33:11.749Z,25.79
2018-06-21T00:33:52.270Z,25.85
2018-06-21T00:34:32.762Z,25.9
2018-06-21T00:35:13.248Z,25.91
2018-06-21T00:35:53.766Z,25.83
2018-06-21T00:36:34.249Z,25.9
2018-06-21T00:37:14.766Z,25.8
2018-06-21T00:37:55.250Z,25.79
2018-06-21T00:38:35.732Z,25.79
2018-06-21T00:39:16.239Z,25.79
2018-06-21T00:39:56.717Z,25.92
2018-06-21T00:40:37.207Z,25.83
2018-06-21T00:41:17.718Z,25.77
2018-06-21T00:41:58.261Z,25.77
2018-06-21T00:42:38.697Z,25.8
2018-06-21T00:43:19.252Z,25.75
2018-06-21T00:43:59.705Z,25.7
2018-06-21T00:44:40.194Z,25.61
2018-06-21T00:45:20.691Z,25.67
2018-06-21T00:46:01.232Z,25.64
2018-06-21T00:46:41.690Z,25.69
2018-06-21T00:47:22.214Z,25.7
2018-06-21T00:48:02.678Z,25.65
2018-06-21T00:48:43.163Z,25.72
2018-06-21T00:49:23.649Z,25.7
2018-06-21T00:50:04.156Z,25.69
2018-06-21T00:50:44.653Z,25.72
2018-06-21T00:51:25.137Z,25.67
2018-06-21T00:52:05.665Z,25.69
2018-06-21T00:52:46.148Z,25.72
2018-06-21T00:53:26.639Z,25.69
2018-06-21T00:54:07.155Z,25.76
2018-06-21T00:54:47.860Z,25.75
2018-06-21T00:55:28.104Z,25.69
2018-06-21T00:56:08.627Z,25.76
2018-06-21T00:56:49.117Z,25.7
2018-06-21T00:57:29.607Z,25.61
2018-06-21T00:58:10.072Z,25.57
2018-06-21T00:58:50.592Z,25.61
2018-06-21T00:59:31.042Z,25.69
2018-06-21T01:00:11.575Z,25.67
2018-06-21T01:00:52.009Z,25.64
2018-06-21T01:01:32.533Z,25.73
2018-06-21T01:02:13.046Z,25.69
2018-06-21T01:02:53.556Z,25.67
2018-06-21T01:03:34.078Z,25.75
2018-06-21T01:04:14.544Z,25.7
2018-06-21T01:04:55.104Z,25.62
2018-06-21T01:05:35.625Z,25.69
2018-06-21T01:06:16.204Z,25.58
2018-06-21T01:06:56.638Z,25.58
2018-06-21T01:07:37.170Z,25.58
2018-06-21T01:08:17.686Z,25.57
2018-06-21T01:08:58.122Z,25.54
2018-06-21T01:09:38.713Z,25.51
2018-06-21T01:10:19.247Z,25.57
2018-06-21T01:10:59.732Z,25.46
2018-06-21T01:11:40.165Z,25.54
2018-06-21T01:12:20.661Z,25.4
2018-06-21T01:13:01.134Z,25.32
2018-06-21T01:13:41.638Z,25.36
2018-06-21T01:14:22.088Z,25.43
2018-06-21T01:15:02.580Z,25.42
2018-06-21T01:15:43.091Z,25.35
2018-06-21T01:16:23.561Z,25.32
2018-06-21T01:17:04.092Z,25.33
2018-06-21T01:17:44.532Z,25.32
2018-06-21T01:18:25.014Z,25.33
2018-06-21T01:19:05.502Z,25.4
2018-06-21T01:19:46.016Z,25.47
2018-06-21T01:20:26.479Z,25.33
2018-06-21T01:21:06.970Z,25.3
2018-06-21T01:21:47.460Z,25.3
2018-06-21T01:22:27.928Z,25.3
2018-06-21T01:23:08.435Z,25.21
2018-06-21T01:23:48.921Z,25.21
2018-06-21T01:24:29.419Z,25.28
2018-06-21T01:25:09.917Z,25.18
2018-06-21T01:25:50.451Z,25.3
2018-06-21T01:26:30.963Z,25.32
2018-06-21T01:27:11.497Z,25.18
2018-06-21T01:27:52.025Z,25.32
2018-06-21T01:28:32.549Z,25.36
2018-06-21T01:29:13.069Z,25.24
2018-06-21T01:29:53.605Z,25.25
2018-06-21T01:30:34.133Z,25.17
2018-06-21T01:31:14.655Z,25.14
2018-06-21T01:31:55.172Z,25.24
2018-06-21T01:32:35.716Z,25.23
2018-06-21T01:33:16.242Z,25.28
2018-06-21T01:33:56.765Z,25.23
2018-06-21T01:34:37.279Z,25.27
2018-06-21T01:35:17.810Z,25.23
2018-06-21T01:35:58.335Z,25.14
2018-06-21T01:36:38.856Z,25.3
2018-06-21T01:37:19.367Z,25.25
2018-06-21T01:37:59.893Z,25.18
2018-06-21T01:38:40.419Z,25.21
2018-06-21T01:39:20.959Z,25.3
2018-06-21T01:40:01.468Z,25.35
2018-06-21T01:40:42.010Z,25.35
2018-06-21T01:41:22.516Z,25.3
2018-06-21T01:42:03.033Z,25.25
2018-06-21T01:42:43.559Z,25.28
2018-06-21T01:43:24.072Z,25.32
2018-06-21T01:44:04.587Z,25.35
2018-06-21T01:44:45.113Z,25.4
2018-06-21T01:45:25.634Z,25.35
2018-06-21T01:46:06.167Z,25.42
2018-06-21T01:46:46.671Z,25.36
2018-06-21T01:47:27.193Z,25.36
2018-06-21T01:48:07.730Z,25.33
2018-06-21T01:48:48.264Z,25.39
2018-06-21T01:49:28.805Z,25.36
2018-06-21T01:50:09.300Z,25.38
2018-06-21T01:50:49.817Z,25.2
2018-06-21T01:51:30.329Z,25.32
2018-06-21T01:52:10.856Z,25.27
2018-06-21T01:52:51.391Z,25.38
2018-06-21T01:53:31.910Z,25.33
2018-06-21T01:54:12.435Z,25.18
2018-06-21T01:54:52.962Z,25.27
2018-06-21T01:55:33.490Z,25.27
2018-06-21T01:56:14.027Z,25.18
2018-06-21T01:56:54.560Z,25.18
2018-06-21T01:57:35.089Z,25.18
2018-06-21T01:58:15.569Z,25.17
2018-06-21T01:58:56.126Z,25.1
2018-06-21T01:59:36.653Z,25.08
2018-06-21T02:00:17.173Z,25.05
2018-06-21T02:00:57.699Z,25.06
2018-06-21T02:01:38.216Z,25.1
2018-06-21T02:02:18.717Z,25.09
2018-06-21T02:02:59.251Z,25.03
2018-06-21T02:03:39.779Z,25.05
2018-06-21T02:04:20.295Z,25.06
2018-06-21T02:05:00.832Z,25.06
2018-06-21T02:05:41.305Z,25.08
2018-06-21T02:06:21.837Z,25.06
2018-06-21T02:07:02.388Z,25.14
2018-06-21T02:07:42.903Z,25.13
2018-06-21T02:08:23.440Z,25.09
2018-06-21T02:09:04.017Z,24.99
2018-06-21T02:09:44.511Z,25.08
2018-06-21T02:10:25.027Z,25.03
2018-06-21T02:11:05.546Z,24.93
2018-06-21T02:11:46.060Z,24.85
2018-06-21T02:12:26.573Z,24.91
2018-06-21T02:13:07.098Z,24.95
2018-06-21T02:13:47.608Z,24.99
2018-06-21T02:14:28.137Z,24.87
2018-06-21T02:15:08.666Z,24.88
2018-06-21T02:15:49.192Z,24.8
2018-06-21T02:16:29.752Z,24.83
2018-06-21T02:17:10.265Z,24.99
2018-06-21T02:17:50.783Z,24.91
2018-06-21T02:18:31.304Z,24.93
2018-06-21T02:19:11.830Z,24.93
2018-06-21T02:19:52.365Z,24.84
2018-06-21T02:20:32.882Z,24.81
2018-06-21T02:21:13.410Z,24.78
2018-06-21T02:21:53.931Z,24.81
2018-06-21T02:22:34.436Z,24.76
2018-06-21T02:23:14.959Z,24.78
2018-06-21T02:23:55.480Z,24.84
2018-06-21T02:24:36.061Z,24.68
2018-06-21T02:25:16.586Z,24.76
2018-06-21T02:25:57.114Z,24.83
2018-06-21T02:26:37.620Z,24.68
2018-06-21T02:27:18.135Z,24.67
2018-06-21T02:27:58.666Z,24.73
2018-06-21T02:28:39.186Z,24.73
2018-06-21T02:29:19.707Z,24.76
2018-06-21T02:30:00.237Z,24.76
2018-06-21T02:30:40.759Z,24.87
2018-06-21T02:31:21.267Z,24.81
2018-06-21T02:32:01.804Z,24.9
2018-06-21T02:32:42.316Z,24.73
2018-06-21T02:33:22.835Z,24.8
2018-06-21T02:34:03.354Z,24.73
2018-06-21T02:34:43.872Z,24.8
2018-06-21T02:35:24.505Z,24.77
2018-06-21T02:36:05.028Z,24.65
2018-06-21T02:36:45.538Z,24.64
2018-06-21T02:37:26.057Z,24.8
2018-06-21T02:38:06.576Z,24.77
2018-06-21T02:38:47.087Z,24.68
2018-06-21T02:39:27.627Z,24.71
2018-06-21T02:40:08.144Z,24.77
2018-06-21T02:40:48.673Z,24.73
2018-06-21T02:41:29.194Z,24.67
2018-06-21T02:42:09.696Z,24.65
2018-06-21T02:42:50.251Z,24.65
2018-06-21T02:43:30.758Z,24.65
2018-06-21T02:44:11.275Z,24.71
2018-06-21T02:44:51.787Z,24.78
2018-06-21T02:45:32.339Z,24.68
2018-06-21T02:46:12.851Z,24.69
2018-06-21T02:46:53.371Z,24.68
2018-06-21T02:47:33.902Z,24.69
2018-06-21T02:48:14.429Z,24.71
2018-06-21T02:48:54.954Z,24.65
2018-06-21T02:49:35.469Z,24.64
2018-06-21T02:50:15.978Z,24.67
2018-06-21T02:50:56.496Z,24.67
2018-06-21T02:51:37.009Z,24.61
2018-06-21T02:52:17.536Z,24.55
2018-06-21T02:52:58.043Z,24.49
2018-06-21T02:53:38.546Z,24.45
2018-06-21T02:54:19.064Z,24.46
2018-06-21T02:54:59.585Z,24.49
2018-06-21T02:55:40.093Z,24.61
2018-06-21T02:56:20.605Z,24.65
2018-06-21T02:57:01.127Z,24.68
2018-06-21T02:57:41.644Z,24.53
2018-06-21T02:58:22.170Z,24.6
2018-06-21T02:59:02.701Z,24.49
2018-06-21T02:59:43.216Z,24.46
2018-06-21T03:00:23.731Z,24.42
2018-06-21T03:01:04.274Z,24.46
2018-06-21T03:01:44.790Z,24.49
2018-06-21T03:02:25.306Z,24.42
2018-06-21T03:03:05.822Z,24.4
2018-06-21T03:03:46.349Z,24.43
2018-06-21T03:04:26.864Z,24.4
2018-06-21T03:05:07.403Z,24.37
2018-06-21T03:05:47.940Z,24.39
2018-06-21T03:06:28.466Z,24.42
2018-06-21T03:07:08.981Z,24.42
2018-06-21T03:07:49.502Z,24.39
2018-06-21T03:08:30.049Z,24.32
2018-06-21T03:09:10.548Z,24.39
2018-06-21T03:09:51.084Z,24.37
2018-06-21T03:10:31.586Z,24.31
2018-06-21T03:11:12.108Z,24.39
2018-06-21T03:11:52.651Z,24.42
2018-06-21T03:12:33.173Z,24.32
2018-06-21T03:13:13.688Z,24.28
2018-06-21T03:13:54.203Z,24.34
2018-06-21T03:14:34.724Z,24.32
2018-06-21T03:15:15.247Z,24.3
2018-06-21T03:15:55.778Z,24.37
2018-06-21T03:16:36.283Z,24.31
2018-06-21T03:17:16.820Z,24.35
2018-06-21T03:17:57.325Z,24.28
2018-06-21T03:18:37.855Z,24.37
2018-06-21T03:19:18.374Z,24.37
2018-06-21T03:19:58.902Z,24.28
2018-06-21T03:20:39.437Z,24.3
2018-06-21T03:21:19.948Z,24.27
2018-06-21T03:22:00.512Z,24.34
2018-06-21T03:22:40.986Z,24.42
2018-06-21T03:23:21.506Z,24.39
2018-06-21T03:24:02.044Z,24.42
2018-06-21T03:24:42.539Z,24.37
2018-06-21T03:25:23.036Z,24.4
2018-06-21T03:26:03.548Z,24.34
2018-06-21T03:26:44.064Z,24.31
2018-06-21T03:27:24.592Z,24.31
2018-06-21T03:28:05.109Z,24.31
2018-06-21T03:28:45.637Z,24.34
2018-06-21T03:29:26.154Z,24.37
2018-06-21T03:30:06.676Z,24.49
2018-06-21T03:30:47.212Z,24.34
2018-06-21T03:31:27.731Z,24.4
2018-06-21T03:32:08.265Z,24.5
2018-06-21T03:32:48.784Z,24.47
2018-06-21T03:33:29.310Z,24.5
2018-06-21T03:34:09.829Z,24.47
2018-06-21T03:34:50.353Z,24.5
2018-06-21T03:35:30.874Z,24.58
2018-06-21T03:36:11.398Z,24.61
2018-06-21T03:36:51.922Z,24.65
2018-06-21T03:37:32.449Z,24.53
2018-06-21T03:38:12.974Z,24.64
2018-06-21T03:38:53.490Z,24.57
2018-06-21T03:39:34.015Z,24.49
2018-06-21T03:40:14.531Z,24.52
2018-06-21T03:40:55.054Z,24.57
2018-06-21T03:41:35.579Z,24.65
2018-06-21T03:42:16.115Z,24.71
2018-06-21T03:42:56.631Z,24.53
2018-06-21T03:43:37.172Z,24.53
2018-06-21T03:44:17.725Z,24.52
2018-06-21T03:44:58.251Z,24.47
2018-06-21T03:45:38.783Z,24.46
2018-06-21T03:46:19.301Z,24.47
2018-06-21T03:46:59.824Z,24.49
2018-06-21T03:47:40.361Z,24.58
2018-06-21T03:48:20.885Z,24.53
2018-06-21T03:49:01.395Z,24.61
2018-06-21T03:49:41.920Z,24.5
2018-06-21T03:50:22.426Z,24.58
2018-06-21T03:51:02.948Z,24.5
2018-06-21T03:51:43.477Z,24.52
2018-06-21T03:52:24.001Z,24.47
2018-06-21T03:53:04.517Z,24.52
2018-06-21T03:53:45.036Z,24.55
2018-06-21T03:54:25.551Z,24.53
2018-06-21T03:55:06.066Z,24.39
2018-06-21T03:55:46.587Z,24.49
2018-06-21T03:56:27.099Z,24.46
2018-06-21T03:57:07.792Z,24.43
2018-06-21T03:57:48.314Z,24.5
2018-06-21T03:58:28.837Z,24.37
2018-06-21T03:59:09.359Z,24.4
2018-06-21T03:59:49.877Z,24.45
2018-06-21T04:00:30.414Z,24.46
2018-06-21T04:01:10.936Z,24.58
2018-06-21T04:01:51.465Z,24.5
2018-06-21T04:02:31.998Z,24.5
2018-06-21T04:03:12.514Z,24.39
2018-06-21T04:03:53.029Z,24.45
2018-06-21T04:04:33.548Z,24.39
2018-06-21T04:05:14.068Z,24.34
2018-06-21T04:05:54.585Z,24.42
2018-06-21T04:06:35.102Z,24.49
2018-06-21T04:07:15.641Z,24.57
2018-06-21T04:07:56.142Z,24.55
2018-06-21T04:08:36.670Z,24.5
2018-06-21T04:09:17.185Z,24.47
2018-06-21T04:09:57.698Z,24.42
2018-06-21T04:10:38.230Z,24.4
2018-06-21T04:11:18.756Z,24.45
2018-06-21T04:11:59.265Z,24.47
2018-06-21T04:12:39.791Z,24.5
2018-06-21T04:13:20.296Z,24.49
2018-06-21T04:14:00.820Z,24.53
2018-06-21T04:14:41.409Z,24.52
2018-06-21T04:15:21.926Z,24.53
2018-06-21T04:16:02.545Z,24.58
2018-06-21T04:16:43.031Z,24.47
2018-06-21T04:17:23.543Z,24.52
2018-06-21T04:18:04.071Z,24.52
2018-06-21T04:18:44.597Z,24.65
2018-06-21T04:19:25.110Z,24.55
2018-06-21T04:20:05.635Z,24.65
2018-06-21T04:20:46.165Z,24.62
2018-06-21T04:21:26.687Z,24.64
2018-06-21T04:22:07.209Z,24.68
2018-06-21T04:22:47.724Z,24.73
2018-06-21T04:23:28.237Z,24.78
2018-06-21T04:24:08.774Z,24.73
2018-06-21T04:24:49.303Z,24.83
2018-06-21T04:25:29.833Z,24.67
2018-06-21T04:26:10.350Z,24.69
2018-06-21T04:26:50.893Z,24.71
2018-06-21T04:27:31.406Z,24.8
2018-06-21T04:28:11.937Z,24.78
2018-06-21T04:28:52.466Z,24.67
2018-06-21T04:29:32.980Z,24.78
2018-06-21T04:30:13.501Z,24.76
2018-06-21T04:30:54.136Z,24.9
2018-06-21T04:31:34.678Z,24.84
2018-06-21T04:32:15.217Z,24.87
2018-06-21T04:32:55.717Z,24.93
2018-06-21T04:33:36.247Z,24.9
2018-06-21T04:34:16.896Z,25.03
2018-06-21T04:34:57.418Z,24.91
2018-06-21T04:35:38.046Z,24.96
2018-06-21T04:36:18.559Z,24.99
2018-06-21T04:36:59.091Z,24.98
2018-06-21T04:37:39.626Z,25
2018-06-21T04:38:20.150Z,24.93
2018-06-21T04:39:00.668Z,25.03
2018-06-21T04:39:41.202Z,25
2018-06-21T04:40:21.716Z,25.03
2018-06-21T04:41:02.236Z,25.1
2018-06-21T04:41:42.773Z,25.25
2018-06-21T04:42:23.282Z,25.39
2018-06-21T04:43:03.824Z,25.3
2018-06-21T04:43:44.351Z,25.27
2018-06-21T04:44:24.874Z,25.2
2018-06-21T04:45:05.415Z,25.25
2018-06-21T04:45:45.987Z,25.27
2018-06-21T04:46:26.480Z,25.18
2018-06-21T04:47:07.014Z,25.42
2018-06-21T04:47:47.536Z,25.35
2018-06-21T04:48:28.084Z,25.38
2018-06-21T04:49:08.595Z,25.27
2018-06-21T04:49:49.115Z,25.32
2018-06-21T04:50:29.636Z,25.35
2018-06-21T04:54:53.700Z,25.35
2018-06-21T04:55:34.220Z,25.33
2018-06-21T04:56:14.732Z,25.5
2018-06-21T04:56:55.250Z,25.64
2018-06-21T04:57:35.773Z,25.73
2018-06-21T04:58:16.293Z,25.64
2018-06-21T04:58:56.808Z,25.64
2018-06-21T04:59:37.361Z,25.61
2018-06-21T05:00:17.849Z,25.69
2018-06-21T05:00:58.409Z,25.75
2018-06-21T05:01:38.932Z,25.77
2018-06-21T05:02:19.456Z,25.87
2018-06-21T05:02:59.990Z,25.91
2018-06-21T05:03:40.532Z,25.88
2018-06-21T05:04:21.096Z,26.02
2018-06-21T05:05:01.635Z,26.02
2018-06-21T05:05:42.151Z,26.09
2018-06-21T05:06:22.718Z,26.06
2018-06-21T05:07:03.207Z,25.98
2018-06-21T05:07:43.728Z,25.94
2018-06-21T05:08:24.242Z,25.9
2018-06-21T05:09:04.769Z,25.9
2018-06-21T05:09:45.295Z,25.69
2018-06-21T05:10:25.818Z,25.67
2018-06-21T05:11:06.354Z,25.75
2018-06-21T05:11:46.876Z,25.75
2018-06-21T05:12:27.402Z,25.77
2018-06-21T05:13:07.939Z,25.75
2018-06-21T05:13:48.451Z,25.76
2018-06-21T05:14:29.029Z,25.75
2018-06-21T05:15:09.549Z,25.65
2018-06-21T05:15:50.073Z,25.75
2018-06-21T05:16:30.594Z,26.05
2018-06-21T05:17:11.153Z,26.33
2018-06-21T05:17:51.675Z,26.65
2018-06-21T05:18:32.219Z,27.04
2018-06-21T05:19:12.749Z,26.85
2018-06-21T05:19:53.274Z,26.69
2018-06-21T05:20:33.797Z,26.32
2018-06-21T05:21:14.307Z,26.37
2018-06-21T05:21:54.830Z,26.35
2018-06-21T05:22:35.385Z,26.2
2018-06-21T05:23:15.910Z,26.29
2018-06-21T05:23:56.433Z,26.28
2018-06-21T05:24:36.964Z,26.33
2018-06-21T05:25:17.519Z,26.28
2018-06-21T05:25:58.058Z,26.37
2018-06-21T05:26:38.569Z,26.54
2018-06-21T05:27:19.088Z,26.92
2018-06-21T05:27:59.626Z,27.09
2018-06-21T05:28:40.810Z,26.87
2018-06-21T05:29:21.329Z,26.7
2018-06-21T05:30:01.851Z,26.58
2018-06-21T05:30:42.360Z,26.62
2018-06-21T05:31:22.877Z,26.55
2018-06-21T05:32:03.449Z,26.39
2018-06-21T05:32:43.945Z,26.44
2018-06-21T05:33:24.469Z,26.36
2018-06-21T05:34:04.982Z,26.28
2018-06-21T05:34:45.556Z,26.33
2018-06-21T05:35:26.073Z,26.3
2018-06-21T05:36:06.597Z,26.39
2018-06-21T05:36:47.152Z,26.21
2018-06-21T05:37:27.683Z,26.28
2018-06-21T05:38:08.191Z,26.26
2018-06-21T05:38:48.725Z,26.21
2018-06-21T05:39:29.253Z,26.17
2018-06-21T05:40:09.802Z,26.23
2018-06-21T05:40:50.296Z,26.23
2018-06-21T05:41:30.831Z,26.21
2018-06-21T05:42:11.359Z,26.25
2018-06-21T05:42:51.885Z,26.18
2018-06-21T05:43:32.403Z,25.99
2018-06-21T05:44:12.916Z,26.15
2018-06-21T05:44:53.449Z,25.98
2018-06-21T05:45:33.983Z,25.97
2018-06-21T05:46:14.499Z,25.95
2018-06-21T05:46:55.015Z,25.9
2018-06-21T05:47:35.536Z,25.87
2018-06-21T05:48:16.094Z,25.99
2018-06-21T05:48:56.624Z,25.88
2018-06-21T05:49:37.151Z,25.95
2018-06-21T05:50:17.715Z,26.05
2018-06-21T05:50:58.197Z,26.05
2018-06-21T05:51:38.726Z,26.02
2018-06-21T05:52:19.247Z,26.09
2018-06-21T05:52:59.787Z,25.94
2018-06-21T05:53:40.316Z,26.07
2018-06-21T05:54:20.834Z,26.1
2018-06-21T05:55:01.357Z,26.21
2018-06-21T05:55:41.884Z,26.32
2018-06-21T05:56:22.398Z,26.36
2018-06-21T05:57:02.922Z,26.55
2018-06-21T05:57:43.454Z,26.72
2018-06-21T05:58:23.978Z,26.89
2018-06-21T05:59:04.496Z,27.04
2018-06-21T05:59:45.031Z,27.21
2018-06-21T06:00:25.587Z,27.4
2018-06-21T06:01:06.100Z,27.47
2018-06-21T06:01:46.628Z,27.79
2018-06-21T06:02:27.165Z,27.88
2018-06-21T06:03:07.692Z,28.04
2018-06-21T06:03:48.218Z,28.22
2018-06-21T06:04:28.763Z,28.31
2018-06-21T06:05:09.297Z,28.46
2018-06-21T06:05:49.814Z,28.62
2018-06-21T06:06:30.347Z,28.71
2018-06-21T06:07:10.930Z,28.89
2018-06-21T06:07:51.476Z,29.04
2018-06-21T06:08:32.024Z,29
2018-06-21T06:09:12.537Z,29.06
2018-06-21T06:09:53.081Z,29.09
2018-06-21T06:10:33.623Z,29.26
2018-06-21T06:11:14.162Z,29.02
2018-06-21T06:11:54.714Z,29.04
2018-06-21T06:12:35.239Z,29.27
2018-06-21T06:13:15.768Z,29.34
2018-06-21T06:13:56.305Z,29.49
2018-06-21T06:14:36.839Z,29.57
2018-06-21T06:15:17.367Z,29.64
2018-06-21T06:15:57.879Z,29.58
2018-06-21T06:16:38.414Z,29.7
2018-06-21T06:17:18.995Z,29.7
2018-06-21T06:17:59.516Z,29.45
2018-06-21T06:18:40.073Z,29.33
2018-06-21T06:19:20.609Z,29.37
2018-06-21T06:20:01.239Z,29.28
2018-06-21T06:20:41.692Z,29.37
2018-06-21T06:21:22.219Z,29.53
2018-06-21T06:22:02.739Z,29.51
2018-06-21T06:22:43.259Z,29.41
2018-06-21T06:23:23.787Z,29.31
2018-06-21T06:24:04.321Z,29.37
2018-06-21T06:24:44.840Z,29.19
2018-06-21T06:25:25.365Z,29.41
2018-06-21T06:26:05.885Z,29.49
2018-06-21T06:26:46.401Z,29.6
2018-06-21T06:27:26.924Z,29.73
2018-06-21T06:28:07.463Z,29.58
2018-06-21T06:28:48.011Z,29.67
2018-06-21T06:29:28.528Z,29.6
2018-06-21T06:30:09.049Z,29.65
2018-06-21T06:30:49.558Z,29.55
2018-06-21T06:31:30.093Z,29.43
2018-06-21T06:32:10.619Z,29.27
2018-06-21T06:32:51.155Z,29.09
2018-06-21T06:33:31.699Z,28.88
2018-06-21T06:34:12.217Z,28.56
2018-06-21T06:34:52.733Z,28.3
2018-06-21T06:35:33.294Z,28.29
2018-06-21T06:36:13.815Z,28.39
2018-06-21T06:36:54.337Z,28.39
2018-06-21T06:37:34.857Z,28.62
2018-06-21T06:38:15.382Z,28.68
2018-06-21T06:38:55.912Z,28.8
2018-06-21T06:39:36.442Z,28.83
2018-06-21T06:40:17.033Z,28.78
2018-06-21T06:40:57.556Z,28.78
2018-06-21T06:41:38.078Z,28.74
2018-06-21T06:42:18.612Z,28.81
2018-06-21T06:42:59.162Z,28.77
2018-06-21T06:43:39.699Z,28.76
2018-06-21T06:44:20.233Z,28.86
2018-06-21T06:45:00.757Z,28.92
2018-06-21T06:45:41.327Z,28.88
2018-06-21T06:46:21.934Z,28.89
2018-06-21T06:47:02.387Z,28.93
2018-06-21T06:47:42.927Z,28.85
2018-06-21T06:48:23.455Z,28.88
2018-06-21T06:49:03.960Z,28.85
2018-06-21T06:49:44.502Z,28.83
2018-06-21T06:50:25.023Z,28.86
2018-06-21T06:51:05.559Z,28.92
2018-06-21T06:51:46.095Z,28.95
2018-06-21T06:52:26.628Z,28.98
2018-06-21T06:53:07.155Z,29.12
2018-06-21T06:53:47.681Z,29.06
2018-06-21T06:54:28.219Z,29.15
2018-06-21T06:55:08.703Z,29
2018-06-21T06:55:49.230Z,29
2018-06-21T06:56:29.761Z,29.04
2018-06-21T06:57:10.302Z,29.16
2018-06-21T06:57:50.840Z,29
2018-06-21T06:58:31.369Z,29.02
2018-06-21T06:59:11.887Z,29.15
2018-06-21T06:59:52.432Z,29.21
2018-06-21T07:00:32.943Z,29.23
2018-06-21T07:01:13.471Z,29.24
2018-06-21T07:01:53.991Z,29.3
2018-06-21T07:02:34.506Z,29.24
2018-06-21T07:03:15.034Z,29.27
2018-06-21T07:03:55.553Z,29.37
2018-06-21T07:04:36.064Z,29.58
2018-06-21T07:05:16.607Z,29.58
2018-06-21T07:05:57.118Z,29.46
2018-06-21T07:06:37.650Z,29.49
2018-06-21T07:07:18.176Z,29.41
2018-06-21T07:07:58.778Z,29.36
2018-06-21T07:08:39.257Z,29.52
2018-06-21T07:09:19.782Z,29.6
2018-06-21T07:10:00.359Z,29.58
2018-06-21T07:10:40.904Z,29.49
2018-06-21T07:11:21.438Z,29.52
2018-06-21T07:12:01.976Z,29.63
2018-06-21T07:12:42.501Z,29.58
2018-06-21T07:13:23.035Z,29.46
2018-06-21T07:14:03.575Z,29.36
2018-06-21T07:14:44.129Z,29.41
2018-06-21T07:15:24.686Z,29.48
2018-06-21T07:16:05.209Z,29.52
2018-06-21T07:16:45.737Z,29.65
2018-06-21T07:17:26.287Z,29.65
2018-06-21T07:18:06.818Z,29.57
2018-06-21T07:18:47.338Z,29.63
2018-06-21T07:19:27.874Z,29.65
2018-06-21T07:20:08.394Z,29.74
2018-06-21T07:20:48.933Z,29.76
2018-06-21T07:21:29.457Z,29.58
2018-06-21T07:22:10.000Z,29.58
2018-06-21T07:22:50.514Z,29.58
2018-06-21T07:23:31.044Z,29.52
2018-06-21T07:24:11.598Z,29.51
2018-06-21T07:24:52.118Z,29.46
2018-06-21T07:25:32.640Z,29.45
2018-06-21T07:26:13.175Z,29.46
2018-06-21T07:26:53.706Z,29.57
2018-06-21T07:27:34.242Z,29.43
2018-06-21T07:28:14.807Z,29.36
2018-06-21T07:28:55.334Z,29.43
2018-06-21T07:29:35.845Z,29.51
2018-06-21T07:30:16.366Z,29.53
2018-06-21T07:30:56.894Z,29.63
2018-06-21T07:31:37.427Z,29.76
2018-06-21T07:32:17.971Z,29.78
2018-06-21T07:32:58.489Z,29.74
2018-06-21T07:33:39.039Z,29.8
2018-06-21T07:34:19.542Z,29.8
2018-06-21T07:35:00.062Z,29.85
2018-06-21T07:35:40.601Z,29.83
2018-06-21T07:36:21.130Z,29.85
2018-06-21T07:37:01.650Z,29.73
2018-06-21T07:37:42.169Z,29.79
2018-06-21T07:38:22.716Z,29.86
2018-06-21T07:39:03.344Z,29.86
2018-06-21T07:39:43.783Z,29.65
2018-06-21T07:40:24.313Z,29.68
2018-06-21T07:41:04.909Z,29.67
2018-06-21T07:41:45.433Z,29.74
2018-06-21T07:42:25.969Z,29.74
2018-06-21T07:43:06.506Z,29.73
2018-06-21T07:43:47.037Z,29.78
2018-06-21T07:44:27.559Z,29.68
2018-06-21T07:45:08.085Z,29.83
2018-06-21T07:45:48.605Z,29.83
2018-06-21T07:46:29.135Z,29.82
2018-06-21T07:47:09.691Z,29.86
2018-06-21T07:47:50.215Z,29.87
2018-06-21T07:48:30.741Z,29.89
2018-06-21T07:49:11.258Z,29.83
2018-06-21T07:49:51.787Z,29.89
2018-06-21T07:50:32.304Z,29.86
2018-06-21T07:51:12.844Z,30.02
2018-06-21T07:51:53.424Z,30.08
2018-06-21T07:52:33.959Z,30.02
2018-06-21T07:53:14.492Z,30.1
2018-06-21T07:53:55.068Z,30.17
2018-06-21T07:54:35.572Z,30.17
2018-06-21T07:55:16.120Z,30.05
2018-06-21T07:55:56.638Z,30.04
2018-06-21T07:56:37.189Z,30.08
2018-06-21T07:57:17.716Z,30.08
2018-06-21T07:57:58.263Z,30.11
2018-06-21T07:58:38.785Z,29.92
2018-06-21T07:59:19.322Z,29.97
2018-06-21T07:59:59.849Z,29.87
2018-06-21T08:00:40.404Z,29.73
2018-06-21T08:01:20.942Z,29.64
2018-06-21T08:02:01.478Z,29.63
2018-06-21T08:02:42.011Z,29.55
2018-06-21T08:03:22.537Z,29.49
2018-06-21T08:04:03.063Z,29.51
2018-06-21T08:04:43.595Z,29.6
2018-06-21T08:05:24.130Z,29.68
2018-06-21T08:06:04.658Z,29.6
2018-06-21T08:06:45.233Z,29.61
2018-06-21T08:07:25.798Z,29.57
2018-06-21T08:08:06.329Z,29.76
2018-06-21T08:08:46.833Z,29.74
2018-06-21T08:09:27.358Z,29.73
2018-06-21T08:10:07.899Z,29.86
2018-06-21T08:10:48.446Z,30.01
2018-06-21T08:11:28.975Z,29.95
2018-06-21T08:12:09.535Z,30.11
2018-06-21T08:12:50.064Z,30.11
2018-06-21T08:13:30.590Z,30.07
2018-06-21T08:14:11.120Z,30.16
2018-06-21T08:14:51.648Z,30.26
2018-06-21T08:15:32.188Z,30.24
2018-06-21T08:16:12.747Z,30.31
2018-06-21T08:16:53.264Z,30.32
2018-06-21T08:17:33.799Z,30.38
2018-06-21T08:18:14.319Z,30.24
2018-06-21T08:18:54.849Z,30.24
2018-06-21T08:19:35.386Z,30.39
2018-06-21T08:20:15.915Z,30.6
2018-06-21T08:20:56.433Z,30.54
2018-06-21T08:21:36.956Z,30.64
2018-06-21T08:22:17.500Z,30.57
2018-06-21T08:22:58.035Z,30.62
2018-06-21T08:23:38.556Z,30.57
2018-06-21T08:24:19.085Z,30.57
2018-06-21T08:24:59.603Z,30.64
2018-06-21T08:25:40.384Z,30.64
2018-06-21T08:26:20.924Z,30.55
2018-06-21T08:27:01.454Z,30.53
2018-06-21T08:27:42.007Z,30.58
2018-06-21T08:28:22.528Z,30.61
2018-06-21T08:29:03.059Z,30.53
2018-06-21T08:29:43.589Z,30.55
2018-06-21T08:30:24.118Z,30.45
2018-06-21T08:31:04.651Z,30.57
2018-06-21T08:31:45.172Z,30.51
2018-06-21T08:32:25.694Z,30.34
2018-06-21T08:33:06.259Z,30.31
2018-06-21T08:33:46.769Z,30.26
2018-06-21T08:34:27.301Z,30.22
2018-06-21T08:35:07.821Z,30.29
2018-06-21T08:35:48.350Z,30.11
2018-06-21T08:36:28.865Z,30.17
2018-06-21T08:37:09.427Z,30.11
2018-06-21T08:37:49.950Z,30.08
2018-06-21T08:38:30.470Z,30.15
2018-06-21T08:39:10.985Z,30.1
2018-06-21T08:39:51.516Z,30.16
2018-06-21T08:40:32.034Z,29.98
2018-06-21T08:41:12.615Z,29.97
2018-06-21T08:41:53.132Z,29.97
2018-06-21T08:42:33.670Z,30.08
2018-06-21T08:43:14.187Z,30.08
2018-06-21T08:43:54.712Z,30.01
2018-06-21T08:44:35.251Z,30.07
2018-06-21T08:45:15.769Z,30.04
2018-06-21T08:45:56.301Z,30.07
2018-06-21T08:46:36.827Z,30
2018-06-21T08:47:17.346Z,30.16
2018-06-21T08:47:57.885Z,30.13